createdAt,value
2022-12-05T00:01:25.988Z,13.07
2022-12-05T00:03:57.235Z,11.70
2022-12-05T00:06:26.963Z,11.67
2022-12-05T00:08:53.956Z,12.57
2022-12-05T00:11:25.025Z,10.97
2022-12-05T00:13:54.472Z,12.17
2022-12-05T00:16:24.295Z,11.80
2022-12-05T00:18:52.313Z,11.43
2022-12-05T00:21:25.886Z,11.70
2022-12-05T00:23:55.407Z,11.27
2022-12-05T00:26:23.070Z,11.00
2022-12-05T00:28:50.304Z,11.40
2022-12-05T00:31:21.541Z,10.83
2022-12-05T00:33:49.139Z,11.57
2022-12-05T00:36:20.373Z,11.37
2022-12-05T00:38:47.755Z,11.60
2022-12-05T00:41:19.093Z,10.73
2022-12-05T00:43:46.537Z,12.10
2022-12-05T00:46:26.571Z,12.33
2022-12-05T00:48:56.054Z,11.80
2022-12-05T00:51:29.787Z,12.40
2022-12-05T00:54:02.134Z,12.33
2022-12-05T00:56:30.696Z,11.73
2022-12-05T00:58:59.075Z,12.10
2022-12-05T01:01:38.619Z,12.23
2022-12-05T01:04:14.810Z,11.53
2022-12-05T01:06:43.133Z,12.87
2022-12-05T01:09:14.422Z,11.90
2022-12-05T01:11:42.509Z,11.57
2022-12-05T01:14:19.310Z,11.60
2022-12-05T01:16:49.013Z,13.20
2022-12-05T01:19:23.851Z,12.03
2022-12-05T01:21:51.138Z,12.43
2022-12-05T01:24:19.947Z,12.07
2022-12-05T01:26:48.262Z,11.73
2022-12-05T01:29:18.243Z,12.43
2022-12-05T01:31:45.838Z,12.17
2022-12-05T01:34:16.012Z,12.03
2022-12-05T01:36:43.075Z,12.50
2022-12-05T01:39:12.058Z,12.63
2022-12-05T01:41:43.836Z,11.23
2022-12-05T01:44:13.515Z,13.07
2022-12-05T01:46:47.551Z,12.10
2022-12-05T01:49:32.489Z,12.40
2022-12-05T01:52:04.919Z,12.30
2022-12-05T01:54:32.053Z,12.37
2022-12-05T01:57:03.374Z,12.63
2022-12-05T01:59:37.093Z,12.27
2022-12-05T02:02:04.978Z,12.40
2022-12-05T02:04:35.926Z,12.07
2022-12-05T02:07:02.704Z,12.07
2022-12-05T02:09:29.490Z,10.67
2022-12-05T02:12:01.237Z,11.13
2022-12-05T02:15:16.375Z,11.63
2022-12-05T02:18:32.145Z,11.83
2022-12-05T02:21:48.183Z,10.83
2022-12-05T02:24:51.083Z,11.27
2022-12-05T02:27:50.540Z,11.17
2022-12-05T02:30:23.552Z,11.93
2022-12-05T02:33:12.014Z,11.77
2022-12-05T02:35:44.581Z,13.07
2022-12-05T02:38:25.096Z,12.30
2022-12-05T02:41:40.652Z,12.13
2022-12-05T02:44:18.967Z,12.40
2022-12-05T02:46:48.793Z,12.77
2022-12-05T02:49:23.220Z,12.70
2022-12-05T02:51:56.862Z,12.57
2022-12-05T02:54:29.709Z,11.50
2022-12-05T02:56:59.405Z,11.90
2022-12-05T02:59:26.344Z,10.43
2022-12-05T03:01:53.302Z,10.43
2022-12-05T03:04:23.697Z,10.87
2022-12-05T03:07:20.861Z,11.37
2022-12-05T03:09:59.726Z,11.77
2022-12-05T03:12:32.562Z,11.33
2022-12-05T03:15:17.546Z,11.27
2022-12-05T03:18:13.380Z,10.80
2022-12-05T03:20:48.458Z,10.77
2022-12-05T03:23:24.558Z,10.83
2022-12-05T03:26:12.087Z,11.00
2022-12-05T03:29:26.009Z,10.87
2022-12-05T03:32:24.802Z,11.50
2022-12-05T03:35:12.249Z,11.00
2022-12-05T03:38:01.027Z,11.00
2022-12-05T03:40:35.172Z,12.07
2022-12-05T03:43:14.588Z,12.30
2022-12-05T03:46:12.023Z,12.33
2022-12-05T03:49:17.063Z,11.97
2022-12-05T03:52:14.192Z,11.40
2022-12-05T03:54:56.842Z,11.90
2022-12-05T03:57:36.274Z,11.70
2022-12-05T04:00:09.445Z,11.50
2022-12-05T04:02:45.795Z,11.93
2022-12-05T04:05:45.035Z,12.40
2022-12-05T04:08:29.707Z,11.60
2022-12-05T04:11:03.469Z,12.03
2022-12-05T04:14:09.295Z,11.53
2022-12-05T04:17:04.668Z,11.00
2022-12-05T04:20:10.402Z,11.23
2022-12-05T04:22:38.369Z,11.67
2022-12-05T04:25:27.704Z,12.30
2022-12-05T04:28:21.224Z,12.03
2022-12-05T04:31:07.253Z,12.53
2022-12-05T04:33:50.489Z,12.50
2022-12-05T04:36:32.549Z,12.83
2022-12-05T04:39:05.622Z,12.73
2022-12-05T04:41:43.111Z,13.23
2022-12-05T04:44:14.841Z,12.63
2022-12-05T04:46:45.040Z,14.30
2022-12-05T04:49:17.583Z,13.17
2022-12-05T04:51:47.034Z,14.10
2022-12-05T04:54:25.368Z,13.37
2022-12-05T04:57:01.245Z,13.57
2022-12-05T04:59:28.379Z,14.33
2022-12-05T05:02:02.154Z,13.57
2022-12-05T05:04:51.497Z,14.60
2022-12-05T05:07:19.726Z,14.90
2022-12-05T05:09:46.505Z,14.00
2022-12-05T05:12:18.802Z,14.93
2022-12-05T05:14:46.136Z,13.40
2022-12-05T05:17:13.032Z,15.60
2022-12-05T05:19:39.828Z,14.40
2022-12-05T05:22:06.629Z,15.13
2022-12-05T05:24:33.513Z,13.80
2022-12-05T05:27:00.326Z,13.50
2022-12-05T05:29:27.176Z,14.43
2022-12-05T05:31:54.008Z,14.97
2022-12-05T05:34:20.806Z,14.67
2022-12-05T05:36:52.619Z,13.50
2022-12-05T05:39:19.526Z,13.43
2022-12-05T05:41:46.531Z,13.00
2022-12-05T05:44:13.383Z,14.07
2022-12-05T05:46:40.404Z,14.27
2022-12-05T05:49:07.299Z,14.27
2022-12-05T05:51:34.231Z,14.80
2022-12-05T05:54:01.428Z,13.97
2022-12-05T05:56:29.922Z,13.40
2022-12-05T05:59:00.675Z,13.97
2022-12-05T06:01:29.576Z,13.20
2022-12-05T06:03:57.803Z,13.90
2022-12-05T06:06:25.276Z,12.53
2022-12-05T06:08:52.114Z,12.00
2022-12-05T06:11:27.005Z,12.43
2022-12-05T06:13:56.223Z,11.43
2022-12-05T06:16:23.632Z,11.70
2022-12-05T06:18:51.802Z,11.57
2022-12-05T06:21:18.650Z,11.03
2022-12-05T06:23:45.883Z,11.90
2022-12-05T06:26:16.913Z,11.60
2022-12-05T06:28:44.359Z,11.43
2022-12-05T06:31:15.756Z,10.97
2022-12-05T06:33:43.322Z,11.13
2022-12-05T06:36:14.163Z,12.17
2022-12-05T06:38:42.496Z,11.53
2022-12-05T06:41:15.755Z,12.17
2022-12-05T06:43:42.957Z,12.67
2022-12-05T06:46:12.808Z,12.10
2022-12-05T06:48:39.847Z,12.40
2022-12-05T06:51:11.028Z,12.77
2022-12-05T06:53:38.431Z,13.53
2022-12-05T06:56:08.165Z,12.63
2022-12-05T06:58:35.097Z,12.23
2022-12-05T07:01:20.433Z,13.07
2022-12-05T07:03:49.361Z,12.87
2022-12-05T07:06:17.216Z,14.40
2022-12-05T07:08:44.984Z,12.90
2022-12-05T07:11:12.166Z,13.70
2022-12-05T07:13:39.096Z,14.53
2022-12-05T07:16:07.321Z,14.57
2022-12-05T07:18:35.728Z,14.73
2022-12-05T07:21:12.849Z,13.90
2022-12-05T07:23:41.805Z,14.40
2022-12-05T07:26:11.915Z,13.90
2022-12-05T07:28:38.674Z,14.83
2022-12-05T07:31:09.864Z,26.17
2022-12-05T07:33:37.879Z,18.73
2022-12-05T07:36:15.043Z,16.33
2022-12-05T07:38:42.526Z,15.10
2022-12-05T07:41:20.707Z,14.80
2022-12-05T07:43:47.565Z,14.40
2022-12-05T07:46:14.531Z,15.77
2022-12-05T07:48:41.460Z,14.23
2022-12-05T07:51:10.763Z,15.60
2022-12-05T07:53:39.181Z,14.70
2022-12-05T07:56:08.564Z,14.67
2022-12-05T07:58:36.221Z,14.73
2022-12-05T08:01:12.770Z,14.83
2022-12-05T08:03:39.832Z,14.70
2022-12-05T08:06:13.465Z,13.93
2022-12-05T08:08:40.410Z,14.70
2022-12-05T08:11:11.530Z,14.50
2022-12-05T08:13:38.869Z,14.60
2022-12-05T08:16:10.679Z,15.07
2022-12-05T08:18:37.853Z,14.60
2022-12-05T08:21:09.369Z,15.13
2022-12-05T08:23:37.612Z,15.43
2022-12-05T08:26:14.203Z,16.47
2022-12-05T08:28:42.608Z,15.33
2022-12-05T08:31:16.640Z,15.53
2022-12-05T08:33:44.299Z,16.13
2022-12-05T08:36:15.446Z,15.10
2022-12-05T08:38:44.319Z,15.60
2022-12-05T08:41:14.681Z,16.47
2022-12-05T08:43:41.916Z,15.47
2022-12-05T08:46:09.107Z,16.40
2022-12-05T08:48:36.761Z,15.67
2022-12-05T08:51:10.407Z,15.33
2022-12-05T08:53:44.072Z,14.50
2022-12-05T08:56:12.564Z,17.47
2022-12-05T08:58:40.077Z,16.93
2022-12-05T09:01:09.209Z,16.57
2022-12-05T09:03:36.464Z,17.37
2022-12-05T09:06:21.524Z,16.87
2022-12-05T09:08:49.932Z,15.63
2022-12-05T09:11:25.917Z,17.87
2022-12-05T09:13:55.440Z,18.10
2022-12-05T09:16:36.858Z,18.33
2022-12-05T09:19:05.333Z,21.67
2022-12-05T09:21:32.974Z,19.33
2022-12-05T09:24:00.926Z,18.37
2022-12-05T09:26:30.264Z,28.27
2022-12-05T09:28:57.472Z,19.97
2022-12-05T09:31:27.228Z,21.57
2022-12-05T09:33:54.979Z,23.90
2022-12-05T09:36:25.759Z,17.67
2022-12-05T09:38:54.366Z,17.10
2022-12-05T09:42:08.027Z,17.10
2022-12-05T09:45:15.081Z,16.43
2022-12-05T09:48:01.736Z,16.33
2022-12-05T09:50:33.812Z,17.70
2022-12-05T09:53:09.453Z,16.90
2022-12-05T09:55:49.926Z,15.90
2022-12-05T09:58:42.871Z,15.00
2022-12-05T10:01:38.922Z,15.73
2022-12-05T10:04:25.756Z,14.90
2022-12-05T10:07:27.255Z,14.10
2022-12-05T10:10:28.551Z,13.90
2022-12-05T10:13:27.610Z,15.23
2022-12-05T10:16:00.983Z,14.93
2022-12-05T10:18:46.728Z,14.93
2022-12-05T10:21:19.703Z,14.70
2022-12-05T10:24:04.062Z,14.00
2022-12-05T10:26:52.852Z,16.03
2022-12-05T10:29:35.588Z,15.77
2022-12-05T10:32:32.758Z,14.87
2022-12-05T10:35:21.699Z,15.70
2022-12-05T10:37:53.254Z,14.77
2022-12-05T10:40:21.150Z,16.20
2022-12-05T10:42:49.800Z,15.90
2022-12-05T10:45:23.265Z,15.03
2022-12-05T10:47:55.653Z,16.47
2022-12-05T10:50:36.748Z,15.73
2022-12-05T10:53:05.434Z,15.17
2022-12-05T10:56:00.081Z,15.60
2022-12-05T10:58:30.500Z,14.73
2022-12-05T11:01:14.015Z,15.53
2022-12-05T11:03:43.391Z,15.17
2022-12-05T11:06:30.076Z,14.77
2022-12-05T11:09:14.531Z,15.00
2022-12-05T11:11:41.382Z,14.57
2022-12-05T11:14:24.892Z,14.87
2022-12-05T11:16:58.159Z,16.27
2022-12-05T11:19:32.972Z,15.70
2022-12-05T11:22:00.584Z,15.83
2022-12-05T11:24:31.941Z,16.60
2022-12-05T11:27:20.906Z,17.20
2022-12-05T11:30:19.115Z,16.93
2022-12-05T11:32:46.095Z,16.23
2022-12-05T11:35:12.861Z,16.30
2022-12-05T11:37:56.094Z,15.23
2022-12-05T11:40:39.412Z,15.90
2022-12-05T11:43:46.994Z,16.57
2022-12-05T11:46:31.952Z,15.30
2022-12-05T11:49:42.461Z,14.80
2022-12-05T11:52:26.819Z,16.67
2022-12-05T11:55:17.001Z,15.27
2022-12-05T11:57:52.943Z,16.07
2022-12-05T12:00:40.757Z,15.20
2022-12-05T12:03:52.634Z,13.77
2022-12-05T12:06:32.707Z,15.27
2022-12-05T12:09:42.648Z,13.93
2022-12-05T12:12:57.702Z,14.70
2022-12-05T12:16:08.784Z,15.00
2022-12-05T12:18:55.275Z,14.00
2022-12-05T12:21:55.825Z,13.80
2022-12-05T12:24:41.838Z,13.20
2022-12-05T12:27:36.069Z,13.53
2022-12-05T12:30:44.327Z,13.70
2022-12-05T12:33:38.222Z,13.60
2022-12-05T12:36:35.489Z,13.10
2022-12-05T12:39:14.201Z,13.10
2022-12-05T12:41:52.841Z,14.10
2022-12-05T12:45:06.588Z,14.37
2022-12-05T12:48:08.555Z,13.30
2022-12-05T12:50:44.115Z,13.40
2022-12-05T12:53:56.067Z,14.10
2022-12-05T12:57:08.128Z,13.57
2022-12-05T13:00:10.805Z,13.43
2022-12-05T13:02:51.215Z,13.40
2022-12-05T13:05:36.176Z,13.17
2022-12-05T13:08:24.949Z,13.77
2022-12-05T13:10:53.719Z,12.90
2022-12-05T13:13:28.833Z,13.47
2022-12-05T13:16:00.876Z,12.30
2022-12-05T13:18:28.342Z,12.87
2022-12-05T13:20:58.876Z,12.80
2022-12-05T13:23:29.864Z,14.67
2022-12-05T13:26:00.118Z,12.73
2022-12-05T13:28:34.692Z,13.07
2022-12-05T13:31:03.956Z,12.27
2022-12-05T13:33:49.866Z,12.90
2022-12-05T13:36:40.519Z,12.83
2022-12-05T13:39:46.235Z,12.90
2022-12-05T13:42:27.832Z,12.27
2022-12-05T13:44:58.977Z,12.70
2022-12-05T13:48:00.610Z,12.23
2022-12-05T13:50:52.866Z,12.73
2022-12-05T13:53:33.222Z,12.83
2022-12-05T13:56:06.068Z,12.90
2022-12-05T13:58:57.206Z,12.20
2022-12-05T14:01:27.042Z,12.50
2022-12-05T14:03:59.695Z,12.43
2022-12-05T14:06:38.516Z,11.67
2022-12-05T14:09:50.185Z,11.77
2022-12-05T14:12:16.868Z,12.97
2022-12-05T14:14:56.566Z,13.17
2022-12-05T14:17:43.942Z,12.80
2022-12-05T14:20:29.784Z,12.47
2022-12-05T14:23:27.258Z,12.23
2022-12-05T14:26:19.046Z,12.73
2022-12-05T14:28:57.591Z,13.43
2022-12-05T14:31:58.416Z,13.10
2022-12-05T14:34:35.389Z,11.60
2022-12-05T14:37:17.551Z,12.47
2022-12-05T14:39:47.161Z,11.90
2022-12-05T14:42:57.379Z,12.90
2022-12-05T14:45:39.581Z,11.77
2022-12-05T14:48:15.630Z,12.40
2022-12-05T14:50:45.532Z,12.60
2022-12-05T14:53:15.238Z,13.07
2022-12-05T14:55:47.512Z,13.63
2022-12-05T14:58:20.219Z,12.40
2022-12-05T15:01:00.234Z,14.30
2022-12-05T15:03:39.952Z,12.73
2022-12-05T15:06:15.857Z,13.77
2022-12-05T15:08:50.554Z,12.50
2022-12-05T15:11:28.539Z,12.73
2022-12-05T15:14:08.736Z,11.73
2022-12-05T15:16:44.104Z,12.47
2022-12-05T15:19:50.956Z,12.23
2022-12-05T15:22:22.022Z,12.13
2022-12-05T15:24:48.944Z,12.10
2022-12-05T15:27:16.700Z,11.77
2022-12-05T15:29:43.892Z,11.70
2022-12-05T15:32:10.658Z,11.37
2022-12-05T15:34:49.399Z,12.20
2022-12-05T15:37:20.569Z,10.17
2022-12-05T15:39:59.589Z,10.37
2022-12-05T15:42:34.143Z,9.80
2022-12-05T15:45:15.424Z,10.50
2022-12-05T15:47:48.306Z,9.87
2022-12-05T15:50:20.206Z,10.23
2022-12-05T15:53:05.166Z,8.83
2022-12-05T15:55:41.551Z,9.03
2022-12-05T15:58:28.068Z,9.60
2022-12-05T16:01:06.705Z,9.70
2022-12-05T16:03:58.811Z,9.47
2022-12-05T16:06:43.661Z,11.07
2022-12-05T16:09:17.983Z,10.53
2022-12-05T16:11:56.726Z,9.90
2022-12-05T16:17:17.491Z,8.70
2022-12-05T16:19:44.308Z,8.47
2022-12-05T16:22:17.871Z,7.97
2022-12-05T16:25:15.291Z,7.73
2022-12-05T16:27:44.025Z,8.57
2022-12-05T16:30:21.808Z,8.33
2022-12-05T16:32:57.248Z,8.40
2022-12-05T16:35:40.163Z,8.57
2022-12-05T16:38:17.381Z,7.93
2022-12-05T16:40:49.857Z,7.47
2022-12-05T16:43:27.635Z,7.00
2022-12-05T16:45:59.071Z,7.93
2022-12-05T16:48:31.526Z,7.80
2022-12-05T16:51:13.711Z,8.30
2022-12-05T16:53:47.261Z,7.83
2022-12-05T16:56:30.701Z,8.30
2022-12-05T16:58:58.778Z,7.90
2022-12-05T17:01:27.159Z,7.83
2022-12-05T17:03:56.125Z,8.37
2022-12-05T17:06:25.299Z,8.50
2022-12-05T17:08:55.612Z,8.40
2022-12-05T17:11:26.761Z,8.70
2022-12-05T17:13:56.198Z,7.70
2022-12-05T17:16:23.667Z,8.40
2022-12-05T17:18:50.557Z,7.93
2022-12-05T17:21:24.496Z,8.00
2022-12-05T17:23:51.916Z,8.10
2022-12-05T17:26:21.342Z,8.07
2022-12-05T17:28:49.238Z,9.17
2022-12-05T17:31:22.469Z,8.70
2022-12-05T17:33:51.661Z,7.87
2022-12-05T17:36:21.033Z,8.50
2022-12-05T17:38:48.833Z,7.97
2022-12-05T17:41:23.763Z,8.97
2022-12-05T17:43:51.529Z,8.13
2022-12-05T17:46:23.066Z,9.00
2022-12-05T17:48:51.660Z,12.87
2022-12-05T17:51:20.102Z,12.07
2022-12-05T17:53:47.654Z,9.67
2022-12-05T17:56:15.234Z,9.17
2022-12-05T17:58:42.416Z,8.80
2022-12-05T18:01:16.818Z,8.73
2022-12-05T18:03:44.034Z,8.87
2022-12-05T18:06:11.150Z,8.93
2022-12-05T18:08:50.824Z,8.57
2022-12-05T18:11:17.692Z,7.53
2022-12-05T18:13:44.477Z,8.30
2022-12-05T18:16:11.454Z,8.43
2022-12-05T18:18:38.996Z,8.20
2022-12-05T18:21:12.590Z,8.47
2022-12-05T18:23:40.927Z,8.47
2022-12-05T18:26:10.123Z,8.93
2022-12-05T18:28:38.886Z,8.70
2022-12-05T18:31:09.764Z,8.40
2022-12-05T18:33:36.875Z,9.07
2022-12-05T18:36:06.516Z,8.10
2022-12-05T18:38:33.418Z,8.60
2022-12-05T18:41:02.476Z,7.90
2022-12-05T18:43:29.685Z,9.10
2022-12-05T18:45:58.614Z,9.43
2022-12-05T18:48:46.052Z,9.47
2022-12-05T18:51:17.728Z,9.63
2022-12-05T18:53:51.989Z,9.27
2022-12-05T18:56:31.878Z,9.60
2022-12-05T18:59:05.503Z,8.93
2022-12-05T19:01:38.713Z,8.77
2022-12-05T19:04:07.546Z,8.97
2022-12-05T19:06:36.767Z,9.53
2022-12-05T19:09:15.880Z,8.77
2022-12-05T19:11:47.626Z,10.27
2022-12-05T19:14:18.676Z,8.77
2022-12-05T19:16:46.229Z,10.33
2022-12-05T19:19:14.512Z,9.20
2022-12-05T19:21:42.519Z,10.17
2022-12-05T19:24:14.642Z,9.67
2022-12-05T19:26:42.323Z,10.57
2022-12-05T19:29:12.138Z,9.80
2022-12-05T19:31:39.457Z,9.00
2022-12-05T19:34:09.189Z,9.17
2022-12-05T19:36:40.725Z,9.60
2022-12-05T19:39:15.689Z,9.40
2022-12-05T19:41:42.926Z,10.17
2022-12-05T19:44:10.387Z,9.27
2022-12-05T19:46:37.967Z,9.47
2022-12-05T19:49:09.221Z,8.83
2022-12-05T19:51:37.250Z,8.70
2022-12-05T19:54:06.436Z,8.20
2022-12-05T19:56:35.425Z,8.13
2022-12-05T19:59:02.439Z,8.37
2022-12-05T20:01:36.105Z,8.07
2022-12-05T20:04:08.338Z,8.13
2022-12-05T20:06:42.506Z,8.50
2022-12-05T20:09:11.970Z,7.90
2022-12-05T20:11:42.183Z,7.70
2022-12-05T20:14:11.835Z,7.73
2022-12-05T20:16:38.689Z,7.47
2022-12-05T20:19:06.139Z,6.60
2022-12-05T20:21:35.001Z,6.30
2022-12-05T20:24:04.223Z,6.03
2022-12-05T20:26:37.287Z,5.90
2022-12-05T20:29:05.370Z,6.43
2022-12-05T20:31:41.466Z,6.80
2022-12-05T20:34:13.314Z,6.90
2022-12-05T20:36:40.120Z,5.80
2022-12-05T20:39:12.826Z,5.70
2022-12-05T20:41:40.084Z,6.73
2022-12-05T20:44:08.758Z,5.93
2022-12-05T20:46:36.985Z,6.37
2022-12-05T20:49:04.450Z,6.00
2022-12-05T20:51:34.562Z,6.00
2022-12-05T20:54:03.762Z,6.17
2022-12-05T20:56:33.985Z,5.60
2022-12-05T20:59:04.947Z,6.47
2022-12-05T21:01:35.107Z,6.50
2022-12-05T21:04:03.734Z,6.73
2022-12-05T21:06:34.647Z,6.80
2022-12-05T21:09:03.220Z,6.77
2022-12-05T21:11:30.801Z,7.03
2022-12-05T21:14:05.036Z,7.10
2022-12-05T21:16:32.075Z,7.30
2022-12-05T21:18:59.942Z,7.30
2022-12-05T21:21:28.982Z,7.20
2022-12-05T21:23:59.022Z,7.20
2022-12-05T21:26:28.902Z,7.57
2022-12-05T21:28:56.604Z,7.27
2022-12-05T21:31:37.460Z,7.70
2022-12-05T21:34:11.628Z,7.67
2022-12-05T21:36:38.414Z,7.77
2022-12-05T21:39:06.587Z,7.33
2022-12-05T21:41:34.008Z,8.40
2022-12-05T21:44:01.622Z,7.50
2022-12-05T21:46:28.674Z,7.53
2022-12-05T21:48:55.795Z,7.57
2022-12-05T21:51:23.482Z,8.27
2022-12-05T21:53:51.237Z,7.37
2022-12-05T21:56:22.919Z,8.10
2022-12-05T21:58:50.389Z,8.30
2022-12-05T22:01:22.502Z,7.60
2022-12-05T22:03:59.217Z,8.60
2022-12-05T22:06:26.134Z,7.67
2022-12-05T22:08:54.580Z,7.93
2022-12-05T22:11:23.491Z,8.03
2022-12-05T22:13:51.416Z,8.53
2022-12-05T22:16:19.507Z,7.77
2022-12-05T22:18:47.181Z,7.77
2022-12-05T22:21:20.037Z,8.37
2022-12-05T22:23:47.890Z,7.63
2022-12-05T22:26:22.356Z,7.90
2022-12-05T22:28:54.491Z,8.17
2022-12-05T22:31:23.323Z,7.73
2022-12-05T22:33:50.376Z,7.77
2022-12-05T22:36:19.219Z,8.53
2022-12-05T22:38:47.978Z,7.90
2022-12-05T22:41:18.685Z,8.13
2022-12-05T22:43:47.813Z,7.50
2022-12-05T22:46:18.786Z,7.50
2022-12-05T22:48:47.588Z,7.77
2022-12-05T22:51:15.766Z,8.40
2022-12-05T22:53:42.781Z,7.57
2022-12-05T22:56:15.949Z,7.10
2022-12-05T22:58:43.977Z,7.40
2022-12-05T23:01:23.888Z,7.33
2022-12-05T23:03:56.760Z,7.83
2022-12-05T23:06:23.715Z,7.67
2022-12-05T23:08:50.560Z,7.43
2022-12-05T23:11:19.748Z,7.97
2022-12-05T23:13:47.897Z,8.30
2022-12-05T23:16:22.046Z,7.70
2022-12-05T23:18:51.310Z,7.73
2022-12-05T23:21:32.477Z,7.20
2022-12-05T23:24:02.425Z,7.30
2022-12-05T23:26:33.893Z,7.40
2022-12-05T23:29:01.037Z,6.57
2022-12-05T23:31:27.929Z,6.97
2022-12-05T23:33:59.716Z,7.37
2022-12-05T23:36:29.900Z,7.00
2022-12-05T23:38:56.722Z,7.33
2022-12-05T23:41:26.056Z,6.80
2022-12-05T23:43:53.496Z,6.93
2022-12-05T23:46:24.582Z,7.53
2022-12-05T23:48:51.793Z,6.97
2022-12-05T23:51:22.569Z,6.63
2022-12-05T23:53:55.136Z,6.87
2022-12-05T23:56:25.524Z,7.63
2022-12-05T23:58:54.186Z,7.83
